sensor_id;sensor_type;location;lat;lon;timestamp;pressure;altitude;pressure_sealevel;temperature;humidity
74722;BME280;63470;49.826;6.740;2023-04-03T00:02:14;101261.14;;;5.93;64.23
74722;BME280;63470;49.826;6.740;2023-04-03T00:04:46;101257.97;;;5.90;64.28
74722;BME280;63470;49.826;6.740;2023-04-03T00:07:16;101258.29;;;5.86;64.29
74722;BME280;63470;49.826;6.740;2023-04-03T00:09:46;101257.00;;;5.76;64.32
74722;BME280;63470;49.826;6.740;2023-04-03T00:12:16;101257.41;;;5.64;64.35
74722;BME280;63470;49.826;6.740;2023-04-03T00:14:49;101250.25;;;5.47;64.51
74722;BME280;63470;49.826;6.740;2023-04-03T00:17:18;101249.48;;;5.34;64.64
74722;BME280;63470;49.826;6.740;2023-04-03T00:19:48;101256.97;;;5.24;64.67
74722;BME280;63470;49.826;6.740;2023-04-03T00:22:22;101255.06;;;5.12;64.72
74722;BME280;63470;49.826;6.740;2023-04-03T00:24:49;101258.53;;;5.03;64.74
74722;BME280;63470;49.826;6.740;2023-04-03T00:27:25;101255.66;;;4.93;64.74
74722;BME280;63470;49.826;6.740;2023-04-03T00:29:55;101251.16;;;4.74;64.86
74722;BME280;63470;49.826;6.740;2023-04-03T00:32:20;101251.42;;;4.59;65.00
74722;BME280;63470;49.826;6.740;2023-04-03T00:34:51;101257.98;;;4.46;65.10
74722;BME280;63470;49.826;6.740;2023-04-03T00:37:21;101258.03;;;4.33;65.17
74722;BME280;63470;49.826;6.740;2023-04-03T00:39:57;101259.92;;;4.18;65.23
74722;BME280;63470;49.826;6.740;2023-04-03T00:42:22;101258.41;;;4.04;65.32
74722;BME280;63470;49.826;6.740;2023-04-03T00:47:24;101256.66;;;3.82;65.29
74722;BME280;63470;49.826;6.740;2023-04-03T00:49:54;101254.23;;;3.68;65.34
74722;BME280;63470;49.826;6.740;2023-04-03T00:52:28;101255.86;;;3.54;65.42
74722;BME280;63470;49.826;6.740;2023-04-03T00:54:58;101255.53;;;3.40;65.47
74722;BME280;63470;49.826;6.740;2023-04-03T00:57:29;101250.87;;;3.31;65.44
74722;BME280;63470;49.826;6.740;2023-04-03T01:00:00;101246.99;;;3.24;65.42
74722;BME280;63470;49.826;6.740;2023-04-03T01:02:29;101243.64;;;3.18;65.36
74722;BME280;63470;49.826;6.740;2023-04-03T01:05:02;101243.59;;;3.09;65.36
74722;BME280;63470;49.826;6.740;2023-04-03T01:07:31;101249.48;;;2.98;65.31
74722;BME280;63470;49.826;6.740;2023-04-03T01:10:00;101247.36;;;2.89;65.36
74722;BME280;63470;49.826;6.740;2023-04-03T01:12:38;101243.09;;;2.85;65.32
74722;BME280;63470;49.826;6.740;2023-04-03T01:15:01;101245.20;;;2.80;65.27
74722;BME280;63470;49.826;6.740;2023-04-03T01:17:38;101245.27;;;2.76;65.22
74722;BME280;63470;49.826;6.740;2023-04-03T01:25:01;101248.37;;;2.62;65.16
74722;BME280;63470;49.826;6.740;2023-04-03T01:27:32;101251.31;;;2.55;65.14
74722;BME280;63470;49.826;6.740;2023-04-03T01:30:06;101253.33;;;2.44;65.17
74722;BME280;63470;49.826;6.740;2023-04-03T01:32:32;101253.76;;;2.40;65.16
74722;BME280;63470;49.826;6.740;2023-04-03T01:35:07;101254.34;;;2.31;65.15
74722;BME280;63470;49.826;6.740;2023-04-03T01:37:33;101252.80;;;2.23;65.18
74722;BME280;63470;49.826;6.740;2023-04-03T01:40:09;101252.97;;;2.16;65.22
74722;BME280;63470;49.826;6.740;2023-04-03T01:42:35;101256.22;;;2.07;65.26
74722;BME280;63470;49.826;6.740;2023-04-03T01:45:06;101254.68;;;1.98;65.28
74722;BME280;63470;49.826;6.740;2023-04-03T01:47:36;101258.78;;;1.85;65.42
74722;BME280;63470;49.826;6.740;2023-04-03T01:50:07;101263.67;;;1.77;65.43
74722;BME280;63470;49.826;6.740;2023-04-03T01:52:42;101261.17;;;1.65;65.54
74722;BME280;63470;49.826;6.740;2023-04-03T01:55:11;101264.69;;;1.57;65.56
74722;BME280;63470;49.826;6.740;2023-04-03T01:57:39;101263.62;;;1.53;65.56
74722;BME280;63470;49.826;6.740;2023-04-03T02:00:15;101268.80;;;1.50;65.56
74722;BME280;63470;49.826;6.740;2023-04-03T02:02:45;101271.14;;;1.48;65.41
74722;BME280;63470;49.826;6.740;2023-04-03T02:05:16;101270.05;;;1.40;65.40
74722;BME280;63470;49.826;6.740;2023-04-03T02:07:44;101264.12;;;1.34;65.49
74722;BME280;63470;49.826;6.740;2023-04-03T02:10:12;101266.91;;;1.30;65.52
74722;BME280;63470;49.826;6.740;2023-04-03T02:12:41;101264.59;;;1.27;65.49
74722;BME280;63470;49.826;6.740;2023-04-03T02:15:12;101265.49;;;1.25;65.37
74722;BME280;63470;49.826;6.740;2023-04-03T02:17:47;101263.48;;;1.21;65.34
74722;BME280;63470;49.826;6.740;2023-04-03T02:20:13;101262.84;;;1.17;65.27
74722;BME280;63470;49.826;6.740;2023-04-03T02:22:43;101267.66;;;1.10;65.27
74722;BME280;63470;49.826;6.740;2023-04-03T02:25:14;101264.57;;;1.03;65.30
74722;BME280;63470;49.826;6.740;2023-04-03T02:27:45;101266.19;;;0.97;65.30
74722;BME280;63470;49.826;6.740;2023-04-03T02:30:17;101263.28;;;0.91;65.21
74722;BME280;63470;49.826;6.740;2023-04-03T02:32:46;101265.97;;;0.85;65.25
74722;BME280;63470;49.826;6.740;2023-04-03T02:35:16;101269.86;;;0.81;65.26
74722;BME280;63470;49.826;6.740;2023-04-03T02:37:47;101264.16;;;0.80;65.20
74722;BME280;63470;49.826;6.740;2023-04-03T02:40:17;101260.93;;;0.77;65.20
74722;BME280;63470;49.826;6.740;2023-04-03T02:42:48;101263.98;;;0.80;65.10
74722;BME280;63470;49.826;6.740;2023-04-03T02:45:18;101262.19;;;0.78;65.03
74722;BME280;63470;49.826;6.740;2023-04-03T02:47:49;101263.59;;;0.78;64.97
74722;BME280;63470;49.826;6.740;2023-04-03T02:50:20;101265.32;;;0.77;64.98
74722;BME280;63470;49.826;6.740;2023-04-03T02:52:52;101265.48;;;0.77;65.01
74722;BME280;63470;49.826;6.740;2023-04-03T02:55:26;101264.48;;;0.80;64.95
74722;BME280;63470;49.826;6.740;2023-04-03T02:57:51;101265.28;;;0.86;64.83
74722;BME280;63470;49.826;6.740;2023-04-03T03:00:22;101266.55;;;0.90;64.81
74722;BME280;63470;49.826;6.740;2023-04-03T03:02:57;101264.34;;;0.93;64.86
74722;BME280;63470;49.826;6.740;2023-04-03T03:05:25;101269.75;;;0.98;64.88
74722;BME280;63470;49.826;6.740;2023-04-03T03:07:54;101266.85;;;1.06;64.84
74722;BME280;63470;49.826;6.740;2023-04-03T03:10:25;101270.04;;;1.12;64.77
74722;BME280;63470;49.826;6.740;2023-04-03T03:12:58;101271.33;;;1.14;64.86
74722;BME280;63470;49.826;6.740;2023-04-03T03:15:31;101262.26;;;1.17;64.85
74722;BME280;63470;49.826;6.740;2023-04-03T03:17:56;101265.66;;;1.21;64.69
74722;BME280;63470;49.826;6.740;2023-04-03T03:20:27;101264.95;;;1.21;64.53
74722;BME280;63470;49.826;6.740;2023-04-03T03:22:57;101264.38;;;1.17;64.48
74722;BME280;63470;49.826;6.740;2023-04-03T03:25:28;101264.21;;;1.13;64.50
74722;BME280;63470;49.826;6.740;2023-04-03T03:28:01;101262.74;;;1.10;64.55
74722;BME280;63470;49.826;6.740;2023-04-03T03:30:29;101265.12;;;1.09;64.61
74722;BME280;63470;49.826;6.740;2023-04-03T03:33:00;101272.08;;;1.10;64.64
74722;BME280;63470;49.826;6.740;2023-04-03T03:35:35;101265.14;;;1.12;64.71
74722;BME280;63470;49.826;6.740;2023-04-03T03:38:03;101264.93;;;1.16;64.73
74722;BME280;63470;49.826;6.740;2023-04-03T03:40:37;101266.70;;;1.20;64.63
74722;BME280;63470;49.826;6.740;2023-04-03T03:43:02;101261.03;;;1.19;64.60
74722;BME280;63470;49.826;6.740;2023-04-03T03:45:35;101260.46;;;1.14;64.63
74722;BME280;63470;49.826;6.740;2023-04-03T03:48:06;101261.85;;;1.08;64.71
74722;BME280;63470;49.826;6.740;2023-04-03T03:50:34;101263.76;;;1.03;64.77
74722;BME280;63470;49.826;6.740;2023-04-03T03:53:09;101262.39;;;0.96;64.83
74722;BME280;63470;49.826;6.740;2023-04-03T03:55:35;101258.89;;;0.87;64.82
74722;BME280;63470;49.826;6.740;2023-04-03T03:58:05;101260.47;;;0.78;64.82
74722;BME280;63470;49.826;6.740;2023-04-03T04:00:36;101256.02;;;0.66;64.84
74722;BME280;63470;49.826;6.740;2023-04-03T04:03:06;101260.28;;;0.53;64.94
74722;BME280;63470;49.826;6.740;2023-04-03T04:05:37;101264.70;;;0.44;65.10
74722;BME280;63470;49.826;6.740;2023-04-03T04:08:07;101269.58;;;0.42;65.17
74722;BME280;63470;49.826;6.740;2023-04-03T04:10:43;101262.27;;;0.42;65.10
74722;BME280;63470;49.826;6.740;2023-04-03T04:13:13;101264.62;;;0.44;65.02
74722;BME280;63470;49.826;6.740;2023-04-03T04:15:41;101261.05;;;0.40;64.99
74722;BME280;63470;49.826;6.740;2023-04-03T04:18:14;101258.99;;;0.37;65.02
74722;BME280;63470;49.826;6.740;2023-04-03T04:20:39;101259.12;;;0.37;65.08
74722;BME280;63470;49.826;6.740;2023-04-03T04:23:10;101261.63;;;0.41;65.07
74722;BME280;63470;49.826;6.740;2023-04-03T04:25:43;101262.48;;;0.43;64.98
74722;BME280;63470;49.826;6.740;2023-04-03T04:28:16;101261.08;;;0.50;64.86
74722;BME280;63470;49.826;6.740;2023-04-03T04:30:46;101261.22;;;0.52;64.73
74722;BME280;63470;49.826;6.740;2023-04-03T04:33:12;101262.30;;;0.52;64.80
74722;BME280;63470;49.826;6.740;2023-04-03T04:35:42;101263.81;;;0.54;64.84
74722;BME280;63470;49.826;6.740;2023-04-03T04:38:20;101263.91;;;0.54;64.84
74722;BME280;63470;49.826;6.740;2023-04-03T04:40:44;101260.09;;;0.56;64.81
74722;BME280;63470;49.826;6.740;2023-04-03T04:43:15;101262.20;;;0.57;64.67
74722;BME280;63470;49.826;6.740;2023-04-03T04:45:45;101260.59;;;0.49;64.65
74722;BME280;63470;49.826;6.740;2023-04-03T04:48:16;101260.88;;;0.42;64.72
74722;BME280;63470;49.826;6.740;2023-04-03T04:50:51;101260.94;;;0.41;64.84
74722;BME280;63470;49.826;6.740;2023-04-03T04:53:17;101261.53;;;0.42;64.88
74722;BME280;63470;49.826;6.740;2023-04-03T04:55:49;101268.44;;;0.42;64.82
74722;BME280;63470;49.826;6.740;2023-04-03T04:58:21;101264.58;;;0.37;64.88
74722;BME280;63470;49.826;6.740;2023-04-03T05:00:59;101266.09;;;0.34;64.96
74722;BME280;63470;49.826;6.740;2023-04-03T05:03:19;101270.85;;;0.36;64.94
74722;BME280;63470;49.826;6.740;2023-04-03T05:05:52;101264.91;;;0.35;64.94
74722;BME280;63470;49.826;6.740;2023-04-03T05:08:20;101273.66;;;0.39;64.94
74722;BME280;63470;49.826;6.740;2023-04-03T05:10:51;101269.26;;;0.41;64.90
74722;BME280;63470;49.826;6.740;2023-04-03T05:13:24;101270.33;;;0.42;64.88
74722;BME280;63470;49.826;6.740;2023-04-03T05:15:52;101273.02;;;0.43;64.89
74722;BME280;63470;49.826;6.740;2023-04-03T05:18:27;101276.95;;;0.46;64.84
74722;BME280;63470;49.826;6.740;2023-04-03T05:20:53;101278.91;;;0.50;64.81
74722;BME280;63470;49.826;6.740;2023-04-03T05:23:23;101285.72;;;0.56;64.84
74722;BME280;63470;49.826;6.740;2023-04-03T05:25:54;101285.67;;;0.63;64.84
74722;BME280;63470;49.826;6.740;2023-04-03T05:28:25;101287.12;;;0.72;64.79
74722;BME280;63470;49.826;6.740;2023-04-03T05:30:59;101282.03;;;0.79;64.68
74722;BME280;63470;49.826;6.740;2023-04-03T05:33:31;101287.16;;;0.84;64.62
74722;BME280;63470;49.826;6.740;2023-04-03T05:35:56;101287.03;;;0.88;64.60
74722;BME280;63470;49.826;6.740;2023-04-03T05:38:31;101286.58;;;0.88;64.62
74722;BME280;63470;49.826;6.740;2023-04-03T05:40:59;101291.21;;;0.93;64.60
74722;BME280;63470;49.826;6.740;2023-04-03T05:43:28;101295.97;;;1.00;64.56
74722;BME280;63470;49.826;6.740;2023-04-03T05:45:58;101295.59;;;1.09;64.50
74722;BME280;63470;49.826;6.740;2023-04-03T05:48:30;101301.03;;;1.19;64.42
74722;BME280;63470;49.826;6.740;2023-04-03T05:50:59;101300.89;;;1.32;64.35
74722;BME280;63470;49.826;6.740;2023-04-03T05:53:31;101304.08;;;1.45;64.24
74722;BME280;63470;49.826;6.740;2023-04-03T05:56:05;101307.22;;;1.82;64.04
74722;BME280;63470;49.826;6.740;2023-04-03T05:58:30;101298.10;;;2.84;63.23
74722;BME280;63470;49.826;6.740;2023-04-03T06:01:04;101297.62;;;3.54;63.61
74722;BME280;63470;49.826;6.740;2023-04-03T06:03:31;101299.50;;;4.01;65.05
74722;BME280;63470;49.826;6.740;2023-04-03T06:06:03;101298.36;;;4.40;66.39
74722;BME280;63470;49.826;6.740;2023-04-03T06:08:32;101299.42;;;4.76;67.19
74722;BME280;63470;49.826;6.740;2023-04-03T06:11:03;101303.73;;;4.78;68.69
74722;BME280;63470;49.826;6.740;2023-04-03T06:13:37;101297.59;;;4.98;69.36
74722;BME280;63470;49.826;6.740;2023-04-03T06:16:05;101299.22;;;5.33;69.10
74722;BME280;63470;49.826;6.740;2023-04-03T06:18:34;101303.00;;;5.48;68.82
74722;BME280;63470;49.826;6.740;2023-04-03T06:21:05;101300.77;;;5.39;69.43
74722;BME280;63470;49.826;6.740;2023-04-03T06:23:35;101304.05;;;5.36;69.98
74722;BME280;63470;49.826;6.740;2023-04-03T06:26:06;101307.74;;;5.26;70.85
74722;BME280;63470;49.826;6.740;2023-04-03T06:28:36;101307.53;;;5.35;70.95
74722;BME280;63470;49.826;6.740;2023-04-03T06:31:09;101315.16;;;5.43;70.60
74722;BME280;63470;49.826;6.740;2023-04-03T06:33:38;101316.39;;;5.54;70.33
74722;BME280;63470;49.826;6.740;2023-04-03T06:36:10;101319.97;;;5.76;70.18
74722;BME280;63470;49.826;6.740;2023-04-03T06:38:38;101321.91;;;6.39;69.29
74722;BME280;63470;49.826;6.740;2023-04-03T06:41:09;101318.94;;;6.85;68.61
74722;BME280;63470;49.826;6.740;2023-04-03T06:43:40;101318.55;;;6.95;68.66
74722;BME280;63470;49.826;6.740;2023-04-03T06:46:14;101314.34;;;7.09;68.67
74722;BME280;63470;49.826;6.740;2023-04-03T06:48:42;101320.52;;;7.31;67.96
74722;BME280;63470;49.826;6.740;2023-04-03T06:51:18;101318.53;;;7.19;68.31
74722;BME280;63470;49.826;6.740;2023-04-03T06:53:43;101318.43;;;7.08;68.50
74722;BME280;63470;49.826;6.740;2023-04-03T06:56:14;101328.33;;;7.01;68.47
74722;BME280;63470;49.826;6.740;2023-04-03T06:58:44;101329.47;;;6.96;68.27
74722;BME280;63470;49.826;6.740;2023-04-03T07:01:16;101325.28;;;7.00;68.01
74722;BME280;63470;49.826;6.740;2023-04-03T07:03:47;101330.45;;;7.07;67.81
74722;BME280;63470;49.826;6.740;2023-04-03T07:06:17;101332.48;;;7.10;67.44
74722;BME280;63470;49.826;6.740;2023-04-03T07:08:46;101338.16;;;7.10;67.19
74722;BME280;63470;49.826;6.740;2023-04-03T07:11:16;101341.34;;;7.09;66.86
74722;BME280;63470;49.826;6.740;2023-04-03T07:13:47;101337.38;;;7.23;66.62
74722;BME280;63470;49.826;6.740;2023-04-03T07:16:20;101336.77;;;7.43;65.99
74722;BME280;63470;49.826;6.740;2023-04-03T07:18:48;101335.86;;;7.42;65.70
74722;BME280;63470;49.826;6.740;2023-04-03T07:21:19;101331.19;;;7.54;65.61
74722;BME280;63470;49.826;6.740;2023-04-03T07:23:50;101339.77;;;7.88;65.15
74722;BME280;63470;49.826;6.740;2023-04-03T07:26:22;101340.44;;;8.23;64.56
74722;BME280;63470;49.826;6.740;2023-04-03T07:28:50;101342.73;;;8.41;64.38
74722;BME280;63470;49.826;6.740;2023-04-03T07:31:21;101344.14;;;8.33;64.51
74722;BME280;63470;49.826;6.740;2023-04-03T07:33:52;101340.95;;;8.17;65.16
74722;BME280;63470;49.826;6.740;2023-04-03T07:36:22;101340.06;;;8.10;65.41
74722;BME280;63470;49.826;6.740;2023-04-03T07:38:53;101346.03;;;8.14;65.75
74722;BME280;63470;49.826;6.740;2023-04-03T07:41:23;101346.68;;;8.25;65.78
74722;BME280;63470;49.826;6.740;2023-04-03T07:43:57;101341.28;;;8.58;65.12
74722;BME280;63470;49.826;6.740;2023-04-03T07:46:24;101341.67;;;8.92;64.42
74722;BME280;63470;49.826;6.740;2023-04-03T07:48:55;101340.14;;;9.15;63.83
74722;BME280;63470;49.826;6.740;2023-04-03T07:51:27;101339.77;;;8.99;64.11
74722;BME280;63470;49.826;6.740;2023-04-03T07:53:56;101342.19;;;8.87;64.65
74722;BME280;63470;49.826;6.740;2023-04-03T07:56:26;101340.06;;;9.05;64.32
74722;BME280;63470;49.826;6.740;2023-04-03T07:58:57;101335.96;;;9.09;64.05
74722;BME280;63470;49.826;6.740;2023-04-03T08:01:28;101339.42;;;9.07;64.12
74722;BME280;63470;49.826;6.740;2023-04-03T08:03:58;101346.34;;;9.08;63.99
74722;BME280;63470;49.826;6.740;2023-04-03T08:06:31;101343.62;;;9.10;63.85
74722;BME280;63470;49.826;6.740;2023-04-03T08:09:04;101342.77;;;9.28;63.35
74722;BME280;63470;49.826;6.740;2023-04-03T08:11:31;101341.70;;;9.18;63.39
74722;BME280;63470;49.826;6.740;2023-04-03T08:14:03;101343.98;;;9.14;63.74
74722;BME280;63470;49.826;6.740;2023-04-03T08:16:31;101345.00;;;9.16;63.70
74722;BME280;63470;49.826;6.740;2023-04-03T08:19:02;101333.84;;;9.23;63.51
74722;BME280;63470;49.826;6.740;2023-04-03T08:21:32;101336.13;;;9.32;63.65
74722;BME280;63470;49.826;6.740;2023-04-03T08:24:04;101332.30;;;9.47;63.49
74722;BME280;63470;49.826;6.740;2023-04-03T08:26:37;101334.66;;;9.58;63.42
74722;BME280;63470;49.826;6.740;2023-04-03T08:29:04;101338.30;;;9.64;63.81
74722;BME280;63470;49.826;6.740;2023-04-03T08:31:38;101342.23;;;9.72;64.32
74722;BME280;63470;49.826;6.740;2023-04-03T08:34:04;101341.59;;;9.73;64.35
74722;BME280;63470;49.826;6.740;2023-04-03T08:36:37;101347.80;;;10.10;63.81
74722;BME280;63470;49.826;6.740;2023-04-03T08:39:06;101338.89;;;10.28;63.20
74722;BME280;63470;49.826;6.740;2023-04-03T08:41:41;101341.36;;;10.32;63.39
74722;BME280;63470;49.826;6.740;2023-04-03T08:46:54;101338.78;;;10.57;63.36
74722;BME280;63470;49.826;6.740;2023-04-03T08:49:20;101341.89;;;10.90;63.23
74722;BME280;63470;49.826;6.740;2023-04-03T08:51:39;101344.38;;;11.13;62.92
74722;BME280;63470;49.826;6.740;2023-04-03T08:54:21;101336.23;;;11.39;62.90
74722;BME280;63470;49.826;6.740;2023-04-03T08:56:38;101336.84;;;12.00;61.95
74722;BME280;63470;49.826;6.740;2023-04-03T08:59:16;101336.06;;;13.02;60.00
74722;BME280;63470;49.826;6.740;2023-04-03T09:01:40;101338.13;;;12.67;60.38
74722;BME280;63470;49.826;6.740;2023-04-03T09:04:13;101338.02;;;12.86;60.75
74722;BME280;63470;49.826;6.740;2023-04-03T09:06:49;101342.47;;;12.38;61.74
74722;BME280;63470;49.826;6.740;2023-04-03T09:09:30;101338.73;;;12.65;62.24
74722;BME280;63470;49.826;6.740;2023-04-03T09:11:48;101340.02;;;12.68;62.37
74722;BME280;63470;49.826;6.740;2023-04-03T09:16:54;101334.36;;;13.54;62.04
74722;BME280;63470;49.826;6.740;2023-04-03T09:19:21;101328.21;;;13.99;61.67
74722;BME280;63470;49.826;6.740;2023-04-03T09:21:43;101331.28;;;14.46;61.33
74722;BME280;63470;49.826;6.740;2023-04-03T09:24:15;101328.34;;;15.06;60.75
74722;BME280;63470;49.826;6.740;2023-04-03T09:26:50;101317.05;;;15.67;60.32
74722;BME280;63470;49.826;6.740;2023-04-03T09:29:22;101322.53;;;16.62;59.46
74722;BME280;63470;49.826;6.740;2023-04-03T09:31:46;101312.16;;;17.07;59.41
74722;BME280;63470;49.826;6.740;2023-04-03T09:34:23;101315.95;;;16.46;60.73
74722;BME280;63470;49.826;6.740;2023-04-03T09:36:47;101308.39;;;15.71;61.50
74722;BME280;63470;49.826;6.740;2023-04-03T09:39:24;101326.66;;;14.49;63.32
74722;BME280;63470;49.826;6.740;2023-04-03T09:42:16;101317.77;;;14.10;63.96
74722;BME280;63470;49.826;6.740;2023-04-03T09:44:22;101311.95;;;14.55;63.33
74722;BME280;63470;49.826;6.740;2023-04-03T09:46:48;101315.75;;;13.86;63.75
74722;BME280;63470;49.826;6.740;2023-04-03T09:49:19;101313.20;;;13.70;63.75
74722;BME280;63470;49.826;6.740;2023-04-03T09:51:52;101320.98;;;14.18;63.21
74722;BME280;63470;49.826;6.740;2023-04-03T09:54:32;101306.84;;;14.95;62.11
74722;BME280;63470;49.826;6.740;2023-04-03T09:56:53;101313.35;;;14.87;62.27
74722;BME280;63470;49.826;6.740;2023-04-03T09:59:22;101300.25;;;15.44;61.84
74722;BME280;63470;49.826;6.740;2023-04-03T10:02:19;101309.48;;;15.42;62.15
74722;BME280;63470;49.826;6.740;2023-04-03T10:04:24;101316.04;;;15.63;61.96
74722;BME280;63470;49.826;6.740;2023-04-03T10:06:54;101309.06;;;15.83;61.63
74722;BME280;63470;49.826;6.740;2023-04-03T10:09:29;101304.31;;;15.63;61.88
74722;BME280;63470;49.826;6.740;2023-04-03T10:12:02;101309.44;;;16.16;61.22
74722;BME280;63470;49.826;6.740;2023-04-03T10:14:24;101306.90;;;16.10;61.10
74722;BME280;63470;49.826;6.740;2023-04-03T10:19:36;101304.65;;;15.66;61.62
74722;BME280;63470;49.826;6.740;2023-04-03T10:22:03;101293.02;;;14.75;62.45
74722;BME280;63470;49.826;6.740;2023-04-03T10:24:54;101309.29;;;14.55;63.49
74722;BME280;63470;49.826;6.740;2023-04-03T10:27:14;101304.88;;;14.61;63.11
74722;BME280;63470;49.826;6.740;2023-04-03T10:29:39;101306.03;;;14.00;63.75
74722;BME280;63470;49.826;6.740;2023-04-03T10:34:37;101303.98;;;13.17;63.98
74722;BME280;63470;49.826;6.740;2023-04-03T10:39:39;101301.41;;;12.94;64.18
74722;BME280;63470;49.826;6.740;2023-04-03T10:42:24;101302.52;;;12.82;64.09
74722;BME280;63470;49.826;6.740;2023-04-03T10:44:47;101304.20;;;12.95;63.72
74722;BME280;63470;49.826;6.740;2023-04-03T10:47:22;101299.39;;;12.65;63.67
74722;BME280;63470;49.826;6.740;2023-04-03T10:49:45;101298.78;;;12.33;63.98
74722;BME280;63470;49.826;6.740;2023-04-03T10:52:06;101291.33;;;12.36;64.06
74722;BME280;63470;49.826;6.740;2023-04-03T10:54:38;101292.56;;;12.62;63.68
74722;BME280;63470;49.826;6.740;2023-04-03T10:57:04;101287.59;;;13.46;62.72
74722;BME280;63470;49.826;6.740;2023-04-03T10:59:38;101290.58;;;14.52;61.34
74722;BME280;63470;49.826;6.740;2023-04-03T11:02:23;101282.80;;;15.23;60.37
74722;BME280;63470;49.826;6.740;2023-04-03T11:04:36;101284.43;;;15.83;59.73
74722;BME280;63470;49.826;6.740;2023-04-03T11:07:19;101278.80;;;16.31;59.33
74722;BME280;63470;49.826;6.740;2023-04-03T11:09:35;101272.03;;;16.61;59.27
74722;BME280;63470;49.826;6.740;2023-04-03T11:12:13;101273.12;;;17.14;59.08
74722;BME280;63470;49.826;6.740;2023-04-03T11:14:37;101274.63;;;17.66;58.72
74722;BME280;63470;49.826;6.740;2023-04-03T11:17:26;101269.69;;;17.79;58.80
74722;BME280;63470;49.826;6.740;2023-04-03T11:19:39;101269.02;;;17.87;59.27
74722;BME280;63470;49.826;6.740;2023-04-03T11:22:21;101266.03;;;18.00;59.37
74722;BME280;63470;49.826;6.740;2023-04-03T11:24:38;101254.17;;;17.95;59.66
74722;BME280;63470;49.826;6.740;2023-04-03T11:27:18;101262.59;;;17.93;59.79
74722;BME280;63470;49.826;6.740;2023-04-03T11:29:40;101267.92;;;17.99;59.82
74722;BME280;63470;49.826;6.740;2023-04-03T11:32:43;101251.58;;;17.87;59.93
74722;BME280;63470;49.826;6.740;2023-04-03T11:34:44;101253.16;;;17.84;60.25
74722;BME280;63470;49.826;6.740;2023-04-03T11:37:35;101258.91;;;17.98;59.83
74722;BME280;63470;49.826;6.740;2023-04-03T11:39:50;101260.03;;;17.80;59.90
74722;BME280;63470;49.826;6.740;2023-04-03T11:44:42;101247.81;;;17.79;59.97
74722;BME280;63470;49.826;6.740;2023-04-03T11:47:12;101235.83;;;17.54;60.37
74722;BME280;63470;49.826;6.740;2023-04-03T11:49:58;101243.33;;;17.52;60.55
74722;BME280;63470;49.826;6.740;2023-04-03T11:52:12;101244.78;;;17.62;60.37
74722;BME280;63470;49.826;6.740;2023-04-03T11:54:47;101238.44;;;17.71;60.03
74722;BME280;63470;49.826;6.740;2023-04-03T11:57:42;101238.33;;;17.74;59.70
74722;BME280;63470;49.826;6.740;2023-04-03T11:59:43;101234.63;;;17.53;60.09
74722;BME280;63470;49.826;6.740;2023-04-03T12:02:35;101237.14;;;17.37;60.48
74722;BME280;63470;49.826;6.740;2023-04-03T12:07:18;101226.41;;;17.08;60.74
74722;BME280;63470;49.826;6.740;2023-04-03T12:09:54;101220.59;;;16.97;60.71
74722;BME280;63470;49.826;6.740;2023-04-03T12:12:39;101224.23;;;17.02;60.34
74722;BME280;63470;49.826;6.740;2023-04-03T12:14:47;101224.62;;;17.00;60.42
74722;BME280;63470;49.826;6.740;2023-04-03T12:17:25;101220.83;;;16.85;60.18
74722;BME280;63470;49.826;6.740;2023-04-03T12:19:48;101223.48;;;16.31;61.05
74722;BME280;63470;49.826;6.740;2023-04-03T12:22:21;101226.14;;;16.18;61.09
74722;BME280;63470;49.826;6.740;2023-04-03T12:24:52;101231.50;;;15.06;61.73
74722;BME280;63470;49.826;6.740;2023-04-03T12:27:32;101229.15;;;14.84;62.83
74722;BME280;63470;49.826;6.740;2023-04-03T12:30:03;101225.09;;;15.28;61.95
74722;BME280;63470;49.826;6.740;2023-04-03T12:35:16;101210.80;;;16.07;60.02
74722;BME280;63470;49.826;6.740;2023-04-03T12:38:10;101209.14;;;15.85;60.01
74722;BME280;63470;49.826;6.740;2023-04-03T12:42:40;101202.80;;;15.50;60.92
74722;BME280;63470;49.826;6.740;2023-04-03T12:45:19;101203.98;;;15.92;60.15
74722;BME280;63470;49.826;6.740;2023-04-03T12:47:26;101208.80;;;15.88;59.58
74722;BME280;63470;49.826;6.740;2023-04-03T12:49:53;101203.42;;;16.14;59.33
74722;BME280;63470;49.826;6.740;2023-04-03T12:52:37;101190.94;;;16.52;58.81
74722;BME280;63470;49.826;6.740;2023-04-03T12:54:54;101188.79;;;16.67;58.38
74722;BME280;63470;49.826;6.740;2023-04-03T12:57:25;101197.10;;;17.00;58.16
74722;BME280;63470;49.826;6.740;2023-04-03T12:59:57;101193.54;;;17.03;58.02
74722;BME280;63470;49.826;6.740;2023-04-03T13:02:28;101186.44;;;17.12;58.11
74722;BME280;63470;49.826;6.740;2023-04-03T13:05:07;101182.73;;;17.28;57.90
74722;BME280;63470;49.826;6.740;2023-04-03T13:07:31;101182.05;;;17.80;57.33
74722;BME280;63470;49.826;6.740;2023-04-03T13:09:59;101176.58;;;18.03;57.03
74722;BME280;63470;49.826;6.740;2023-04-03T13:12:27;101177.72;;;18.18;56.84
74722;BME280;63470;49.826;6.740;2023-04-03T13:15:14;101179.69;;;18.05;56.96
74722;BME280;63470;49.826;6.740;2023-04-03T13:17:28;101177.95;;;17.86;57.45
74722;BME280;63470;49.826;6.740;2023-04-03T13:20:24;101169.91;;;17.92;57.39
74722;BME280;63470;49.826;6.740;2023-04-03T13:22:34;101177.78;;;17.86;57.19
74722;BME280;63470;49.826;6.740;2023-04-03T13:25:03;101171.76;;;17.73;57.25
74722;BME280;63470;49.826;6.740;2023-04-03T13:27:31;101174.12;;;17.52;57.29
74722;BME280;63470;49.826;6.740;2023-04-03T13:30:05;101172.63;;;17.48;57.63
74722;BME280;63470;49.826;6.740;2023-04-03T13:32:32;101171.52;;;17.50;57.58
74722;BME280;63470;49.826;6.740;2023-04-03T13:35:02;101165.57;;;17.62;57.31
74722;BME280;63470;49.826;6.740;2023-04-03T13:37:33;101172.11;;;17.96;56.82
74722;BME280;63470;49.826;6.740;2023-04-03T13:40:12;101171.09;;;17.94;56.66
74722;BME280;63470;49.826;6.740;2023-04-03T13:42:33;101170.52;;;17.96;56.63
74722;BME280;63470;49.826;6.740;2023-04-03T13:45:11;101174.05;;;18.17;56.31